createdAt,value
2023-02-04T00:00:37.490Z,96452.00
2023-02-04T00:04:40.564Z,96444.00
2023-02-04T00:08:43.323Z,96442.00
2023-02-04T00:12:46.088Z,96448.00
2023-02-04T00:16:50.206Z,96469.00
2023-02-04T00:20:53.050Z,96475.00
2023-02-04T00:24:55.920Z,96475.00
2023-02-04T00:28:58.712Z,96479.00
2023-02-04T00:33:02.883Z,96485.00
2023-02-04T00:37:05.722Z,96491.00
2023-02-04T00:41:08.531Z,96491.00
2023-02-04T00:45:11.568Z,96491.00
2023-02-04T00:49:15.934Z,96475.00
2023-02-04T00:53:18.740Z,96478.00
2023-02-04T00:57:21.571Z,96486.00
2023-02-04T01:01:24.423Z,96490.00
2023-02-04T01:05:28.625Z,96497.00
2023-02-04T01:09:31.355Z,96505.00
2023-02-04T01:13:34.085Z,96506.00
2023-02-04T01:17:36.835Z,96513.00
2023-02-04T01:21:41.265Z,96531.00
2023-02-04T01:25:44.216Z,96529.00
2023-02-04T01:29:47.033Z,96541.00
2023-02-04T01:33:49.841Z,96552.00
2023-02-04T01:37:55.337Z,96537.00
2023-02-04T01:41:58.212Z,96537.00
2023-02-04T01:46:02.579Z,96545.00
2023-02-04T01:50:06.201Z,96553.00
2023-02-04T01:54:12.863Z,96554.00
2023-02-04T01:58:16.452Z,96541.00
2023-02-04T02:02:41.706Z,96545.00
2023-02-04T02:06:49.318Z,96548.00
2023-02-04T02:10:53.525Z,96557.00
2023-02-04T02:14:56.691Z,96557.00
2023-02-04T02:19:00.043Z,96556.00
2023-02-04T02:23:07.590Z,96562.00
2023-02-04T02:27:12.827Z,96585.00
2023-02-04T02:31:16.135Z,96582.00
2023-02-04T02:35:19.302Z,96603.00
2023-02-04T02:39:22.789Z,96601.00
2023-02-04T02:43:29.409Z,96598.00
2023-02-04T02:47:32.308Z,96588.00
2023-02-04T02:51:35.213Z,96594.00
2023-02-04T02:55:38.748Z,96593.00
2023-02-04T02:59:43.662Z,96591.00
2023-02-04T03:03:50.355Z,96598.00
2023-02-04T03:07:53.294Z,96599.00
2023-02-04T03:11:56.283Z,96622.00
2023-02-04T03:16:01.347Z,96620.00
2023-02-04T03:20:06.448Z,96621.00
2023-02-04T03:24:09.991Z,96635.00
2023-02-04T03:28:13.816Z,96644.00
2023-02-04T03:32:18.286Z,96649.00
2023-02-04T03:36:21.055Z,96663.00
2023-02-04T03:40:23.895Z,96669.00
2023-02-04T03:44:27.064Z,96670.00
2023-02-04T03:48:31.272Z,96683.00
2023-02-04T03:52:34.044Z,96679.00
2023-02-04T03:56:36.859Z,96683.00
2023-02-04T04:00:39.872Z,96693.00
2023-02-04T04:04:44.233Z,96699.00
2023-02-04T04:08:47.035Z,96699.00
2023-02-04T04:12:49.803Z,96699.00
2023-02-04T04:16:52.564Z,96706.00
2023-02-04T04:20:56.684Z,96711.00
2023-02-04T04:24:59.604Z,96709.00
2023-02-04T04:29:02.388Z,96720.00
2023-02-04T04:33:05.215Z,96729.00
2023-02-04T04:37:09.379Z,96720.00
2023-02-04T04:41:12.176Z,96724.00
2023-02-04T04:45:15.394Z,96721.00
2023-02-04T04:49:18.217Z,96735.00
2023-02-04T04:53:22.418Z,96744.00
2023-02-04T04:57:25.275Z,96746.00
2023-02-04T05:01:28.065Z,96748.00
2023-02-04T05:05:30.908Z,96751.00
2023-02-04T05:09:35.174Z,96750.00
2023-02-04T05:13:37.951Z,96764.00
2023-02-04T05:17:40.756Z,96771.00
2023-02-04T05:21:44.626Z,96777.00
2023-02-04T05:25:48.836Z,96776.00
2023-02-04T05:29:51.622Z,96773.00
2023-02-04T05:33:54.555Z,96775.00
2023-02-04T05:37:57.309Z,96777.00
2023-02-04T05:42:01.550Z,96775.00
2023-02-04T05:46:04.729Z,96786.00
2023-02-04T05:50:08.594Z,96801.00
2023-02-04T05:54:11.378Z,96808.00
2023-02-04T05:58:15.566Z,96812.00
2023-02-04T06:02:18.486Z,96825.00
2023-02-04T06:06:21.241Z,96832.00
2023-02-04T06:10:24.032Z,96836.00
2023-02-04T06:14:28.208Z,96843.00
2023-02-04T06:18:31.060Z,96851.00
2023-02-04T06:22:33.903Z,96853.00
2023-02-04T06:26:36.753Z,96848.00
2023-02-04T06:30:41.044Z,96858.00
2023-02-04T06:34:43.985Z,96872.00
2023-02-04T06:38:46.790Z,96872.00
2023-02-04T06:42:49.617Z,96869.00
2023-02-04T06:46:53.758Z,96876.00
2023-02-04T06:50:56.504Z,96880.00
2023-02-04T06:54:59.294Z,96886.00
2023-02-04T06:59:03.366Z,96887.00
2023-02-04T07:03:08.211Z,96897.00
2023-02-04T07:07:11.636Z,96914.00
2023-02-04T07:11:14.484Z,96900.00
2023-02-04T07:15:17.497Z,96923.00
2023-02-04T07:19:22.965Z,96913.00
2023-02-04T07:23:27.988Z,96916.00
2023-02-04T07:27:30.870Z,96918.00
2023-02-04T07:31:33.830Z,96938.00
2023-02-04T07:35:38.925Z,96939.00
2023-02-04T07:39:41.842Z,96943.00
2023-02-04T07:43:44.784Z,96948.00
2023-02-04T07:47:47.591Z,96963.00
2023-02-04T07:51:51.773Z,96954.00
2023-02-04T07:55:54.590Z,96960.00
2023-02-04T07:59:57.744Z,96980.00
2023-02-04T08:04:00.570Z,96971.00
2023-02-04T08:08:04.774Z,96974.00
2023-02-04T08:12:07.669Z,96984.00
2023-02-04T08:16:11.913Z,96967.00
2023-02-04T08:20:14.829Z,96972.00
2023-02-04T08:24:19.062Z,96985.00
2023-02-04T08:28:21.936Z,96991.00
2023-02-04T08:32:24.729Z,96993.00
2023-02-04T08:36:27.497Z,96989.00
2023-02-04T08:40:32.126Z,96997.00
2023-02-04T08:44:35.105Z,97005.00
2023-02-04T08:48:37.924Z,97008.00
2023-02-04T08:52:40.736Z,97013.00
2023-02-04T08:56:44.896Z,97017.00
2023-02-04T09:00:47.750Z,97029.00
2023-02-04T09:04:50.967Z,97027.00
2023-02-04T09:08:53.744Z,97035.00
2023-02-04T09:12:57.941Z,97047.00
2023-02-04T09:17:01.303Z,97040.00
2023-02-04T09:21:04.234Z,97044.00
2023-02-04T09:25:07.824Z,97046.00
2023-02-04T09:29:11.973Z,97046.00
2023-02-04T09:33:16.541Z,97053.00
2023-02-04T09:37:19.358Z,97053.00
2023-02-04T09:41:22.219Z,97071.00
2023-02-04T09:45:28.287Z,97063.00
2023-02-04T09:49:31.219Z,97074.00
2023-02-04T09:53:35.218Z,97077.00
2023-02-04T09:57:37.990Z,97079.00
2023-02-04T10:01:42.294Z,97076.00
2023-02-04T10:05:46.462Z,97086.00
2023-02-04T10:09:50.503Z,97088.00
2023-02-04T10:13:55.914Z,97096.00
2023-02-04T10:18:04.355Z,97103.00
2023-02-04T10:22:16.912Z,97110.00
2023-02-04T10:26:21.769Z,97116.00
2023-02-04T10:30:26.611Z,97113.00
2023-02-04T10:34:37.876Z,97107.00
2023-02-04T10:38:40.837Z,97108.00
2023-02-04T10:42:51.704Z,97105.00
2023-02-04T10:47:00.610Z,97102.00
2023-02-04T10:51:05.128Z,97104.00
2023-02-04T10:55:13.456Z,97102.00
2023-02-04T10:59:26.701Z,97116.00
2023-02-04T11:03:31.740Z,97115.00
2023-02-04T11:08:31.891Z,97122.00
2023-02-04T11:12:42.863Z,97114.00
2023-02-04T11:16:49.349Z,97111.00
2023-02-04T11:20:54.307Z,97129.00
2023-02-04T11:24:58.167Z,97133.00
2023-02-04T11:29:27.493Z,97125.00
2023-02-04T11:33:39.671Z,97135.00
2023-02-04T11:37:45.060Z,97144.00
2023-02-04T11:41:48.206Z,97138.00
2023-02-04T11:46:03.417Z,97142.00
2023-02-04T11:50:15.931Z,97138.00
2023-02-04T11:54:21.361Z,97138.00
2023-02-04T11:58:26.050Z,97141.00
2023-02-04T12:02:43.347Z,97140.00
2023-02-04T12:06:57.617Z,97136.00
2023-02-04T12:11:03.501Z,97141.00
2023-02-04T12:15:16.076Z,97138.00
2023-02-04T12:19:20.236Z,97143.00
2023-02-04T12:23:23.187Z,97135.00
2023-02-04T12:27:25.993Z,97126.00
2023-02-04T12:31:28.862Z,97133.00
2023-02-04T12:35:33.335Z,97128.00
2023-02-04T12:39:36.324Z,97119.00
2023-02-04T12:43:39.051Z,97124.00
2023-02-04T12:47:43.206Z,97114.00
2023-02-04T12:51:47.366Z,97126.00
2023-02-04T12:55:50.261Z,97133.00
2023-02-04T12:59:57.821Z,97126.00
2023-02-04T13:04:00.625Z,97129.00
2023-02-04T13:08:05.017Z,97121.00
2023-02-04T13:12:07.999Z,97121.00
2023-02-04T13:16:10.789Z,97115.00
2023-02-04T13:20:14.266Z,97128.00
2023-02-04T13:24:18.390Z,97129.00
2023-02-04T13:28:21.190Z,97134.00
2023-02-04T13:32:24.135Z,97134.00
2023-02-04T13:36:28.400Z,97141.00
2023-02-04T13:40:33.079Z,97138.00
2023-02-04T13:44:35.918Z,97151.00
2023-02-04T13:48:38.711Z,97165.00
2023-02-04T13:52:41.544Z,97168.00
2023-02-04T13:56:45.773Z,97173.00
2023-02-04T14:00:48.545Z,97170.00
2023-02-04T14:04:51.365Z,97173.00
2023-02-04T14:08:54.151Z,97182.00
2023-02-04T14:12:58.809Z,97187.00
2023-02-04T14:17:01.630Z,97189.00
2023-02-04T14:21:04.750Z,97206.00
2023-02-04T14:25:09.859Z,97192.00
2023-02-04T14:29:15.192Z,97196.00
2023-02-04T14:33:21.158Z,97205.00
2023-02-04T14:37:28.756Z,97218.00
2023-02-04T15:03:44.700Z,97213.00
2023-02-04T15:07:48.090Z,97220.00
2023-02-04T15:11:53.377Z,97206.00
2023-02-04T15:15:56.187Z,97211.00
2023-02-04T15:20:00.536Z,97205.00
2023-02-04T15:24:03.494Z,97202.00
2023-02-04T15:28:06.681Z,97221.00
2023-02-04T15:32:10.060Z,97222.00
2023-02-04T15:36:14.231Z,97212.00
2023-02-04T15:40:20.096Z,97231.00
2023-02-04T15:44:24.351Z,97233.00
2023-02-04T15:48:31.413Z,97233.00
2023-02-04T15:52:36.331Z,97249.00
2023-02-04T15:56:40.116Z,97257.00
2023-02-04T16:00:43.950Z,97252.00
2023-02-04T16:04:50.848Z,97240.00
2023-02-04T16:08:55.664Z,97244.00
2023-02-04T16:12:58.937Z,97257.00
2023-02-04T16:17:03.143Z,97257.00
2023-02-04T16:21:07.369Z,97258.00
2023-02-04T16:25:12.428Z,97265.00
2023-02-04T16:29:15.282Z,97265.00
2023-02-04T16:33:18.078Z,97278.00
2023-02-04T16:37:21.047Z,97263.00
2023-02-04T16:41:25.167Z,97276.00
2023-02-04T16:45:28.416Z,97286.00
2023-02-04T16:49:31.144Z,97289.00
2023-02-04T16:53:33.936Z,97298.00
2023-02-04T16:57:38.122Z,97304.00
2023-02-04T17:01:43.037Z,97296.00
2023-02-04T17:05:45.901Z,97288.00
2023-02-04T17:09:48.704Z,97296.00
2023-02-04T17:14:00.356Z,97316.00
2023-02-04T17:18:05.403Z,97315.00
2023-02-04T17:22:09.401Z,97321.00
2023-02-04T17:26:12.197Z,97306.00
2023-02-04T17:30:17.233Z,97321.00
2023-02-04T17:34:20.078Z,97316.00
2023-02-04T17:38:23.710Z,97325.00
2023-02-04T17:42:27.213Z,97328.00
2023-02-04T17:46:33.544Z,97318.00
2023-02-04T17:50:40.026Z,97326.00
2023-02-04T17:54:45.055Z,97323.00
2023-02-04T17:58:49.787Z,97335.00
2023-02-04T18:02:53.978Z,97339.00
2023-02-04T18:06:59.415Z,97338.00
2023-02-04T18:11:02.238Z,97339.00
2023-02-04T18:15:25.395Z,97332.00
2023-02-04T18:19:31.997Z,97329.00
2023-02-04T18:23:35.267Z,97345.00
2023-02-04T18:27:38.505Z,97338.00
2023-02-04T18:31:51.088Z,97342.00
2023-02-04T18:35:59.531Z,97337.00
2023-02-04T18:40:22.681Z,97336.00
2023-02-04T18:44:31.661Z,97342.00
2023-02-04T18:49:02.893Z,97344.00
2023-02-04T18:53:23.792Z,97351.00
2023-02-04T18:57:35.104Z,97348.00
2023-02-04T19:01:42.353Z,97352.00
2023-02-04T19:05:48.829Z,97342.00
2023-02-04T19:09:52.962Z,97343.00
2023-02-04T19:13:57.997Z,97347.00
2023-02-04T19:18:16.931Z,97342.00
2023-02-04T19:22:21.427Z,97338.00
2023-02-04T19:26:36.150Z,97341.00
2023-02-04T19:30:46.397Z,97337.00
2023-02-04T19:34:56.749Z,97335.00
2023-02-04T19:39:01.791Z,97334.00
2023-02-04T19:43:19.927Z,97336.00
2023-02-04T19:47:30.528Z,97344.00
2023-02-04T19:51:33.355Z,97339.00
2023-02-04T19:55:51.441Z,97339.00
2023-02-04T19:59:58.939Z,97341.00
2023-02-04T20:04:02.918Z,97339.00
2023-02-04T20:08:24.973Z,97332.00
2023-02-04T20:12:31.577Z,97343.00
2023-02-04T20:16:40.107Z,97338.00
2023-02-04T20:20:46.073Z,97340.00
2023-02-04T20:24:51.031Z,97345.00
2023-02-04T20:28:55.554Z,97343.00
2023-02-04T20:33:22.160Z,97351.00
2023-02-04T20:37:28.133Z,97358.00
2023-02-04T20:41:37.050Z,97343.00
2023-02-04T20:45:47.732Z,97354.00
2023-02-04T20:49:57.940Z,97357.00
2023-02-04T20:54:07.301Z,97352.00
2023-02-04T20:58:19.050Z,97359.00
2023-02-04T21:02:21.860Z,97356.00
2023-02-04T21:06:29.004Z,97362.00
2023-02-04T21:10:33.812Z,97371.00
2023-02-04T21:14:39.581Z,97380.00
2023-02-04T21:18:42.456Z,97385.00
2023-02-04T21:22:49.569Z,97390.00
2023-02-04T21:26:52.440Z,97377.00
2023-02-04T21:30:55.326Z,97392.00
2023-02-04T21:35:00.230Z,97388.00
2023-02-04T21:39:04.815Z,97384.00
2023-02-04T21:43:12.971Z,97385.00
2023-02-04T21:47:19.012Z,97386.00
2023-02-04T21:51:23.604Z,97390.00
2023-02-04T21:55:28.690Z,97394.00
2023-02-04T21:59:31.553Z,97395.00
2023-02-04T22:03:34.374Z,97402.00
2023-02-04T22:07:38.085Z,97402.00
2023-02-04T22:11:42.256Z,97390.00
2023-02-04T22:15:48.881Z,97392.00
2023-02-04T22:19:51.747Z,97388.00
2023-02-04T22:23:54.514Z,97401.00
2023-02-04T22:27:58.754Z,97400.00
2023-02-04T22:32:02.149Z,97402.00
2023-02-04T22:36:08.764Z,97410.00
2023-02-04T22:40:14.469Z,97401.00
2023-02-04T22:44:18.632Z,97403.00
2023-02-04T22:48:21.445Z,97403.00
2023-02-04T22:52:24.760Z,97402.00
2023-02-04T22:56:27.780Z,97404.00
2023-02-04T23:00:32.515Z,97395.00
2023-02-04T23:04:35.284Z,97393.00
2023-02-04T23:08:38.148Z,97388.00
2023-02-04T23:12:40.896Z,97401.00
2023-02-04T23:16:46.954Z,97388.00
2023-02-04T23:20:49.809Z,97380.00
2023-02-04T23:24:52.642Z,97386.00
2023-02-04T23:28:55.653Z,97383.00
2023-02-04T23:32:59.783Z,97378.00
2023-02-04T23:37:02.707Z,97396.00
2023-02-04T23:41:05.689Z,97390.00
2023-02-04T23:45:09.305Z,97388.00
2023-02-04T23:49:13.748Z,97398.00
2023-02-04T23:53:18.838Z,97379.00
2023-02-04T23:57:22.814Z,97388.00
